Time;durP1;ratioP1;P1;durP2;ratioP2;P2;SDS_P1;SDS_P2;PMS_P1;PMS_P2;Temp;Humidity;BMP_temperature;BMP_pressure;BME280_temperature;BME280_humidity;BME280_pressure;Samples;Min_cycle;Max_cycle;Signal;HPM_P1;HPM_P2
2023/10/25 00:02:56;;;;;;;29.40;20.50;;;;;;;13.86;100.00;98655.45;177414;1267;46911;-82
2023/10/25 00:06:59;;;;;;;23.80;20.50;;;;;;;13.69;100.00;98658.61;176417;1267;44647;-82
2023/10/25 00:11:07;;;;;;;25.70;21.10;;;;;;;13.62;100.00;98662.31;175728;1266;45991;-81
2023/10/25 00:15:10;;;;;;;34.70;22.30;;;;;;;13.50;100.00;98664.34;176175;1271;58632;-82
2023/10/25 00:19:13;;;;;;;26.80;19.90;;;;;;;13.48;100.00;98661.92;176617;1270;46061;-82
2023/10/25 00:23:18;;;;;;;33.50;24.20;;;;;;;13.49;100.00;98658.08;177068;1267;46092;-82
2023/10/25 00:27:21;;;;;;;34.30;26.30;;;;;;;13.48;100.00;98660.15;176986;1265;46127;-82
2023/10/25 00:31:24;;;;;;;33.20;25.40;;;;;;;13.49;100.00;98666.66;175942;1269;46097;-82
2023/10/25 00:35:27;;;;;;;31.30;25.30;;;;;;;13.44;100.00;98669.77;177047;1268;58416;-82
2023/10/25 00:39:30;;;;;;;43.20;27.20;;;;;;;13.43;100.00;98668.05;175787;1267;46091;-82
2023/10/25 00:43:33;;;;;;;33.30;24.00;;;;;;;13.43;100.00;98683.41;176663;1267;46156;-82
2023/10/25 00:47:37;;;;;;;31.20;24.90;;;;;;;13.40;100.00;98683.85;175101;1267;46035;-82
2023/10/25 00:51:41;;;;;;;37.80;25.70;;;;;;;13.42;100.00;98677.27;175706;1267;46491;-82
2023/10/25 00:55:45;;;;;;;28.10;24.60;;;;;;;13.40;100.00;98675.67;176760;1266;59410;-82
2023/10/25 00:59:49;;;;;;;32.90;23.80;;;;;;;13.37;100.00;98666.98;176670;1265;45988;-82
2023/10/25 01:03:52;;;;;;;30.80;23.50;;;;;;;13.40;100.00;98661.33;175943;1269;46020;-82
2023/10/25 01:07:56;;;;;;;33.50;21.30;;;;;;;13.40;100.00;98659.36;176268;1267;46124;-82
2023/10/25 01:11:58;;;;;;;27.00;23.00;;;;;;;13.39;100.00;98656.40;176728;1267;46115;-82
2023/10/25 01:16:02;;;;;;;28.70;24.40;;;;;;;13.32;100.00;98661.73;175997;1265;59417;-82
2023/10/25 01:20:06;;;;;;;27.20;22.90;;;;;;;13.35;100.00;98661.04;176431;1268;46053;-83
2023/10/25 01:24:10;;;;;;;32.10;24.80;;;;;;;13.32;100.00;98659.23;176464;1267;46007;-83
2023/10/25 01:28:13;;;;;;;33.40;24.30;;;;;;;13.27;100.00;98663.57;177048;1265;46080;-83
2023/10/25 01:32:16;;;;;;;35.20;25.40;;;;;;;13.19;100.00;98666.25;176391;1266;45962;-82
2023/10/25 01:36:19;;;;;;;30.50;26.70;;;;;;;13.17;100.00;98666.02;176461;1266;60099;-82
2023/10/25 01:40:22;;;;;;;34.10;26.50;;;;;;;13.18;100.00;98668.52;176295;1266;46244;-82
2023/10/25 01:44:25;;;;;;;39.20;28.20;;;;;;;13.22;100.00;98671.27;176146;1267;46093;-82
2023/10/25 01:48:28;;;;;;;36.20;24.80;;;;;;;13.24;100.00;98668.90;175981;1266;46000;-82
2023/10/25 01:52:31;;;;;;;37.60;28.50;;;;;;;13.32;100.00;98668.98;177062;1265;45996;-83
2023/10/25 01:56:34;;;;;;;40.60;29.40;;;;;;;13.35;100.00;98674.44;175655;1267;58375;-83
2023/10/25 02:00:39;;;;;;;40.00;30.00;;;;;;;13.36;100.00;98680.13;175596;1267;46167;-82
2023/10/25 02:04:43;;;;;;;40.20;30.90;;;;;;;13.37;100.00;98682.09;176440;1267;46077;-81
2023/10/25 02:08:46;;;;;;;40.70;29.30;;;;;;;13.41;100.00;98682.85;175774;1270;200272;-81
2023/10/25 02:12:49;;;;;;;44.90;32.70;;;;;;;13.43;100.00;98681.39;175992;1265;45930;-81
2023/10/25 02:16:52;;;;;;;41.80;31.50;;;;;;;13.45;100.00;98686.77;177176;1267;57811;-81
2023/10/25 02:20:55;;;;;;;40.30;30.00;;;;;;;13.44;100.00;98690.58;176847;1265;46190;-81
2023/10/25 02:24:58;;;;;;;32.60;26.20;;;;;;;13.48;100.00;98698.29;177431;1267;46121;-82
2023/10/25 02:29:02;;;;;;;35.90;25.10;;;;;;;13.48;100.00;98703.59;177266;1265;46118;-82
2023/10/25 02:33:04;;;;;;;33.20;25.50;;;;;;;13.48;100.00;98704.86;176954;1265;45977;-83
2023/10/25 02:37:07;;;;;;;29.90;21.50;;;;;;;13.46;100.00;98707.74;177032;1265;58701;-82
2023/10/25 02:41:11;;;;;;;24.60;20.10;;;;;;;13.46;100.00;98709.84;176635;1267;46035;-82
2023/10/25 02:45:14;;;;;;;26.20;19.60;;;;;;;13.44;100.00;98711.28;177054;1265;45949;-83
2023/10/25 02:49:17;;;;;;;30.60;21.70;;;;;;;13.48;100.00;98714.02;177282;1266;46058;-83
2023/10/25 02:53:20;;;;;;;27.10;18.40;;;;;;;13.40;100.00;98717.09;178113;1265;45999;-83
2023/10/25 02:57:23;;;;;;;26.30;21.30;;;;;;;13.37;100.00;98721.67;176792;1265;59370;-82
2023/10/25 03:01:26;;;;;;;23.70;19.00;;;;;;;13.40;100.00;98719.52;177787;1266;44260;-82
2023/10/25 03:05:29;;;;;;;23.50;17.10;;;;;;;13.43;100.00;98718.05;176449;1266;45986;-82
2023/10/25 03:09:32;;;;;;;24.10;20.50;;;;;;;13.44;100.00;98722.80;176027;1265;45998;-82
2023/10/25 03:13:35;;;;;;;22.00;16.90;;;;;;;13.48;100.00;98728.66;178941;1265;46082;-81
2023/10/25 03:17:39;;;;;;;24.30;19.30;;;;;;;13.52;100.00;98727.15;177628;1265;58245;-84
2023/10/25 03:21:42;;;;;;;20.70;17.30;;;;;;;13.52;100.00;98730.80;176597;1265;46084;-84
2023/10/25 03:25:45;;;;;;;22.40;16.50;;;;;;;13.48;100.00;98731.56;176377;1265;45949;-84
2023/10/25 03:29:48;;;;;;;19.20;15.10;;;;;;;13.45;100.00;98734.67;176253;1265;46156;-84
2023/10/25 03:33:52;;;;;;;21.70;15.70;;;;;;;13.45;100.00;98734.10;176631;1265;46056;-84
2023/10/25 03:38:29;;;;;;;21.60;17.10;;;;;;;13.36;100.00;98739.83;176225;1265;59443;-84
2023/10/25 03:42:32;;;;;;;;;;;;;;;13.41;100.00;98735.60;176567;1266;46190;-84
2023/10/25 03:46:36;;;;;;;20.20;17.00;;;;;;;13.41;100.00;98737.98;176603;1265;45892;-85
2023/10/25 03:50:39;;;;;;;22.60;18.30;;;;;;;13.38;100.00;98739.17;176511;1269;45970;-85
2023/10/25 03:54:42;;;;;;;30.30;18.50;;;;;;;13.40;100.00;98731.85;176348;1265;45970;-84
2023/10/25 04:04:06;;;;;;;23.50;15.20;;;;;;;13.33;100.00;98734.03;176581;1265;46149;-84
2023/10/25 04:08:14;;;;;;;24.10;15.30;;;;;;;13.35;100.00;98736.89;176364;1265;46077;-84
2023/10/25 04:12:17;;;;;;;16.60;12.50;;;;;;;13.31;100.00;98729.88;176402;1265;46124;-84
2023/10/25 04:16:20;;;;;;;14.80;11.40;;;;;;;13.32;100.00;98732.23;176298;1269;46087;-88
2023/10/25 04:20:35;;;;;;;12.00;10.10;;;;;;;13.30;100.00;98731.00;176256;1265;58236;-87
2023/10/25 04:24:39;;;;;;;12.60;10.20;;;;;;;13.33;100.00;98727.78;176563;1265;44784;-87
2023/10/25 04:28:44;;;;;;;10.80;7.10;;;;;;;13.36;100.00;98723.52;176769;1267;46086;-88
2023/10/25 04:32:47;;;;;;;8.20;6.20;;;;;;;13.40;100.00;98726.70;176935;1265;46039;-88
2023/10/25 04:36:51;;;;;;;6.20;5.50;;;;;;;13.39;100.00;98730.64;176734;1265;46089;-88
2023/10/25 04:40:55;;;;;;;6.20;5.50;;;;;;;13.36;100.00;98734.08;176917;1267;57301;-86
2023/10/25 04:44:59;;;;;;;5.10;4.60;;;;;;;13.36;100.00;98731.04;176277;1267;45941;-86
2023/10/25 04:49:21;;;;;;;4.60;4.00;;;;;;;13.34;100.00;98734.95;176629;1265;46003;-86
2023/10/25 04:53:24;;;;;;;3.20;3.00;;;;;;;13.26;100.00;98738.77;176609;1265;46093;-86
2023/10/25 04:57:43;;;;;;;4.60;3.80;;;;;;;13.24;100.00;98739.89;176395;1265;46100;-86
2023/10/25 05:01:46;;;;;;;2.80;2.60;;;;;;;13.22;100.00;98744.79;176469;1265;59551;-86
2023/10/25 05:11:38;;;;;;;6.30;3.60;;;;;;;13.26;100.00;98745.14;176504;1265;45989;-85
2023/10/25 05:15:42;;;;;;;5.90;4.30;;;;;;;13.23;100.00;98748.42;176303;1266;46010;-86
2023/10/25 05:19:46;;;;;;;5.10;4.60;;;;;;;13.25;100.00;98749.06;176439;1268;46032;-86
2023/10/25 05:23:50;;;;;;;7.70;6.90;;;;;;;13.28;100.00;98752.56;176244;1269;60057;-86
2023/10/25 05:28:25;;;;;;;9.20;7.50;;;;;;;13.27;100.00;98766.27;176384;1267;46133;-86
2023/10/25 05:32:30;;;;;;;8.30;6.20;;;;;;;13.30;100.00;98772.80;176211;1265;46171;-86
2023/10/25 05:36:33;;;;;;;7.70;6.50;;;;;;;13.18;100.00;98783.33;176265;1265;46005;-86
2023/10/25 05:40:41;;;;;;;13.70;8.30;;;;;;;13.17;100.00;98792.55;176299;1265;46504;-86
2023/10/25 05:44:46;;;;;;;15.50;9.20;;;;;;;13.23;100.00;98795.77;176402;1265;59562;-85
2023/10/25 05:48:49;;;;;;;7.20;6.40;;;;;;;13.19;100.00;98795.17;176272;1265;46049;-84
2023/10/25 05:53:47;;;;;;;7.70;6.90;;;;;;;13.14;100.00;98798.75;176061;1265;46106;-86
2023/10/25 05:57:50;;;;;;;13.40;8.20;;;;;;;13.11;100.00;98804.20;176738;1266;46058;-86
2023/10/25 06:02:17;;;;;;;10.20;8.30;;;;;;;13.12;100.00;98804.80;176382;1265;45993;-86
2023/10/25 06:06:22;;;;;;;8.70;7.90;;;;;;;13.00;100.00;98809.63;177370;1265;59177;-85
2023/10/25 06:10:25;;;;;;;12.70;7.70;;;;;;;12.95;100.00;98817.95;177657;1265;45997;-86
2023/10/25 06:14:36;;;;;;;9.00;7.90;;;;;;;12.92;100.00;98819.55;177657;1267;46040;-86
2023/10/25 06:18:39;;;;;;;10.40;7.40;;;;;;;12.99;100.00;98821.94;176939;1265;46279;-85
2023/10/25 06:28:29;;;;;;;7.30;6.40;;;;;;;12.95;100.00;98832.25;176430;1265;58242;-85
2023/10/25 06:32:33;;;;;;;7.10;6.20;;;;;;;12.99;100.00;98832.13;176150;1270;46106;-85
2023/10/25 06:36:38;;;;;;;5.60;4.70;;;;;;;13.03;100.00;98823.32;176288;1265;46106;-85
2023/10/25 06:41:23;;;;;;;7.50;5.60;;;;;;;12.91;100.00;98829.43;176342;1265;46006;-85
2023/10/25 06:45:28;;;;;;;8.80;7.50;;;;;;;13.05;100.00;98826.67;176200;1265;45934;-85
2023/10/25 06:49:38;;;;;;;8.50;6.10;;;;;;;13.02;100.00;98830.36;176315;1270;58486;-85
2023/10/25 06:53:41;;;;;;;7.20;5.70;;;;;;;12.95;100.00;98835.98;176563;1267;46180;-85
2023/10/25 06:57:46;;;;;;;7.70;6.10;;;;;;;12.89;100.00;98843.11;176632;1267;46230;-86
2023/10/25 07:01:56;;;;;;;7.80;7.00;;;;;;;12.97;100.00;98842.88;176675;1266;46008;-85
2023/10/25 07:06:18;;;;;;;6.90;6.20;;;;;;;13.08;100.00;98848.34;176504;1267;46030;-86
2023/10/25 07:10:22;;;;;;;7.20;5.70;;;;;;;13.21;100.00;98842.95;176397;1267;58238;-85
2023/10/25 07:14:25;;;;;;;6.70;5.70;;;;;;;13.27;100.00;98847.08;176202;1270;45982;-86
2023/10/25 07:18:29;;;;;;;6.70;5.90;;;;;;;13.26;100.00;98849.85;176030;1267;46137;-85
2023/10/25 07:22:32;;;;;;;6.20;4.30;;;;;;;13.28;100.00;98843.63;176133;1266;46236;-86
2023/10/25 07:26:41;;;;;;;4.40;3.90;;;;;;;13.34;100.00;98846.20;176071;1267;45286;-85
2023/10/25 07:30:45;;;;;;;5.80;4.90;;;;;;;13.50;100.00;98848.59;176125;1267;59580;-86
2023/10/25 07:34:51;;;;;;;5.80;4.40;;;;;;;13.50;100.00;98853.49;176087;1268;46146;-85
2023/10/25 07:38:54;;;;;;;3.90;3.10;;;;;;;13.44;100.00;98852.55;176208;1267;45991;-85
2023/10/25 07:42:58;;;;;;;4.60;4.20;;;;;;;13.42;100.00;98858.38;176297;1267;46146;-85
2023/10/25 07:47:01;;;;;;;5.10;4.60;;;;;;;13.54;100.00;98863.90;176605;1267;46082;-85
2023/10/25 07:51:05;;;;;;;5.30;4.80;;;;;;;13.74;100.00;98868.35;176362;1267;59584;-85
2023/10/25 07:55:41;;;;;;;4.30;4.00;;;;;;;13.88;100.00;98869.77;176522;1269;46706;-85
2023/10/25 07:59:48;;;;;;;5.20;4.70;;;;;;;14.03;100.00;98870.30;176298;1265;45994;-86
2023/10/25 08:03:57;;;;;;;6.00;4.20;;;;;;;14.17;100.00;98869.75;176004;1265;46114;-86
2023/10/25 08:08:01;;;;;;;4.50;4.00;;;;;;;14.26;100.00;98874.50;177144;1265;46005;-85
2023/10/25 08:12:35;;;;;;;3.80;3.30;;;;;;;14.36;100.00;98875.13;175886;1270;58972;-85
2023/10/25 08:16:42;;;;;;;5.00;4.50;;;;;;;14.22;100.00;98876.48;176531;1265;46085;-85
2023/10/25 08:20:45;;;;;;;5.20;4.60;;;;;;;14.24;100.00;98878.34;176305;1265;46141;-85
2023/10/25 08:24:56;;;;;;;5.70;3.70;;;;;;;14.18;100.00;98877.67;176397;1265;46228;-85
2023/10/25 08:29:00;;;;;;;4.50;4.10;;;;;;;14.29;100.00;98884.13;176361;1265;45953;-85
2023/10/25 08:33:45;;;;;;;3.40;3.10;;;;;;;14.29;100.00;98884.77;176042;1265;59522;-85
2023/10/25 08:37:48;;;;;;;6.30;3.40;;;;;;;14.23;100.00;98887.79;176603;1265;46115;-86
2023/10/25 08:42:13;;;;;;;6.60;3.10;;;;;;;14.07;100.00;98888.55;176337;1265;46056;-86
2023/10/25 08:46:18;;;;;;;6.10;3.80;;;;;;;14.00;100.00;98895.14;176477;1265;46287;-85
2023/10/25 08:50:33;;;;;;;4.00;3.60;;;;;;;14.06;100.00;98891.23;176696;1265;46088;-86
2023/10/25 08:54:37;;;;;;;7.70;5.60;;;;;;;14.13;100.00;98892.20;176329;1265;58265;-86
2023/10/25 08:58:58;;;;;;;6.80;5.50;;;;;;;14.28;100.00;98891.42;176391;1265;46109;-85
2023/10/25 09:03:03;;;;;;;6.50;5.20;;;;;;;14.35;100.00;98897.95;176168;1265;46031;-85
2023/10/25 09:07:32;;;;;;;6.20;5.10;;;;;;;14.28;100.00;98899.09;175977;1266;46133;-85
2023/10/25 09:17:15;;;;;;;6.10;5.30;;;;;;;14.34;100.00;98894.84;176230;1265;58217;-85
2023/10/25 09:26:49;;;;;;;8.80;5.40;;;;;;;14.12;100.00;98896.92;176574;1268;46126;-85
2023/10/25 09:30:52;;;;;;;7.50;5.00;;;;;;;14.10;100.00;98904.63;176229;1265;46141;-86
2023/10/25 09:34:56;;;;;;;7.10;4.90;;;;;;;14.17;100.00;98903.25;176934;1265;46115;-85
2023/10/25 09:39:05;;;;;;;6.70;6.00;;;;;;;14.27;100.00;98895.33;176356;1268;57993;-85
2023/10/25 09:43:15;;;;;;;6.40;5.40;;;;;;;14.32;100.00;98891.98;176312;1265;46131;-85
2023/10/25 09:47:28;;;;;;;6.10;5.20;;;;;;;14.30;100.00;98891.45;176155;1265;45975;-85
2023/10/25 09:52:07;;;;;;;10.20;6.80;;;;;;;14.38;100.00;98891.83;175327;1271;46053;-85
2023/10/25 09:56:35;;;;;;;8.90;6.70;;;;;;;14.41;100.00;98894.86;175303;1271;46754;-85
2023/10/25 10:00:38;;;;;;;5.60;5.10;;;;;;;14.44;100.00;98895.06;175559;1271;58710;-85
2023/10/25 10:04:57;;;;;;;5.70;4.90;;;;;;;14.51;100.00;98896.55;175307;1271;46120;-85
2023/10/25 10:09:28;;;;;;;6.00;3.80;;;;;;;14.66;100.00;98887.33;175749;1265;46008;-85
2023/10/25 10:13:31;;;;;;;5.80;5.10;;;;;;;15.01;100.00;98882.73;176430;1265;46154;-85
2023/10/25 10:17:42;;;;;;;5.60;4.40;;;;;;;14.97;100.00;98881.03;176642;1265;46854;-85
2023/10/25 10:22:16;;;;;;;5.10;4.60;;;;;;;14.93;100.00;98890.40;176280;1265;58273;-85
2023/10/25 10:26:44;;;;;;;5.10;3.40;;;;;;;14.92;100.00;98891.19;176349;1265;46893;-85
2023/10/25 10:36:11;;;;;;;5.30;4.80;;;;;;;15.10;100.00;98882.99;177192;1265;46059;-86
2023/10/25 10:40:14;;;;;;;10.70;8.50;;;;;;;15.10;100.00;98882.27;176199;1265;46217;-85
2023/10/25 10:44:18;;;;;;;6.10;5.40;;;;;;;15.25;100.00;98872.97;176881;1265;57972;-85
2023/10/25 10:48:38;;;;;;;6.10;3.90;;;;;;;15.53;100.00;98868.48;176654;1266;47564;-85
2023/10/25 10:52:43;;;;;;;5.10;4.60;;;;;;;15.66;100.00;98867.52;176776;1267;46074;-84
2023/10/25 10:56:46;;;;;;;4.50;4.10;;;;;;;15.80;100.00;98863.49;176694;1265;45960;-84
2023/10/25 11:00:55;;;;;;;3.20;2.50;;;;;;;15.70;100.00;98863.83;176482;1265;45994;-86
2023/10/25 11:04:58;;;;;;;3.50;3.20;;;;;;;15.50;100.00;98859.91;176522;1265;58197;-84
2023/10/25 11:09:18;;;;;;;7.50;3.60;;;;;;;15.51;100.00;98857.01;176592;1268;46151;-84
2023/10/25 11:13:21;;;;;;;3.60;3.00;;;;;;;15.29;100.00;98856.23;176247;1266;46077;-84
2023/10/25 11:17:35;;;;;;;2.90;2.10;;;;;;;15.10;100.00;98853.37;176246;1265;46018;-84
2023/10/25 11:21:38;;;;;;;3.00;2.60;;;;;;;15.18;100.00;98851.35;176445;1266;46544;-84
2023/10/25 11:25:41;;;;;;;3.70;3.40;;;;;;;15.32;100.00;98851.80;176314;1265;58003;-84
2023/10/25 11:29:45;;;;;;;3.80;3.50;;;;;;;15.51;100.00;98846.33;176458;1265;46044;-84
2023/10/25 11:33:51;;;;;;;6.00;5.40;;;;;;;15.53;100.00;98838.59;176387;1269;46106;-84
2023/10/25 11:37:55;;;;;;;4.10;3.50;;;;;;;15.68;100.00;98835.79;177178;1265;44165;-84
2023/10/25 11:42:00;;;;;;;4.10;3.70;;;;;;;15.77;100.00;98840.83;176439;1265;46158;-84
2023/10/25 11:46:04;;;;;;;6.20;3.60;;;;;;;15.86;98.92;98842.05;176408;1265;57846;-85
2023/10/25 11:50:08;;;;;;;6.30;4.60;;;;;;;15.89;99.40;98845.55;176429;1265;45993;-84
2023/10/25 11:54:30;;;;;;;3.60;3.10;;;;;;;16.00;100.00;98840.58;176541;1267;45267;-85
2023/10/25 11:58:34;;;;;;;3.70;2.60;;;;;;;16.20;100.00;98836.47;176516;1268;46122;-85
2023/10/25 12:02:37;;;;;;;3.70;3.40;;;;;;;16.31;99.21;98837.27;176287;1269;46104;-85
2023/10/25 12:06:40;;;;;;;4.50;3.70;;;;;;;16.02;100.00;98842.48;176371;1265;59944;-87
2023/10/25 12:10:46;;;;;;;4.80;3.60;;;;;;;16.06;100.00;98842.00;176110;1265;46021;-84
2023/10/25 12:14:50;;;;;;;3.60;3.00;;;;;;;16.01;99.54;98841.69;176238;1265;45965;-84
2023/10/25 12:19:01;;;;;;;4.00;2.00;;;;;;;16.03;97.61;98842.36;176538;1267;46121;-84
2023/10/25 12:23:06;;;;;;;1.80;1.70;;;;;;;15.85;93.71;98837.98;176705;1266;45601;-84
2023/10/25 12:27:11;;;;;;;2.90;2.50;;;;;;;15.74;93.00;98829.96;176802;1265;58344;-84
2023/10/25 12:31:14;;;;;;;3.60;2.80;;;;;;;15.55;97.88;98820.50;176752;1269;46097;-85
2023/10/25 12:35:18;;;;;;;3.10;2.80;;;;;;;15.60;97.94;98819.39;176507;1265;46008;-85
2023/10/25 12:39:21;;;;;;;5.00;3.10;;;;;;;15.61;99.71;98814.94;176601;1270;46122;-84
2023/10/25 12:43:24;;;;;;;4.70;3.30;;;;;;;15.61;98.74;98811.93;176410;1265;46079;-85
2023/10/25 12:47:39;;;;;;;3.70;3.00;;;;;;;15.47;98.09;98799.05;176536;1265;58685;-85
2023/10/25 12:51:42;;;;;;;1.50;1.40;;;;;;;15.44;96.42;98800.83;176344;1265;46193;-84
2023/10/25 12:55:45;;;;;;;2.00;1.90;;;;;;;15.36;94.41;98800.40;176869;1265;46162;-85
2023/10/25 13:00:18;;;;;;;2.60;2.40;;;;;;;15.34;97.54;98797.38;176382;1265;46144;-84
2023/10/25 13:04:22;;;;;;;3.90;3.50;;;;;;;15.17;98.21;98792.02;176293;1268;46866;-85
2023/10/25 13:08:30;;;;;;;3.10;2.90;;;;;;;15.27;99.63;98786.61;176297;1271;58052;-85
2023/10/25 13:12:35;;;;;;;2.50;1.50;;;;;;;15.25;98.17;98784.40;176382;1265;46101;-85
2023/10/25 13:17:04;;;;;;;3.30;3.00;;;;;;;15.29;95.59;98783.98;176192;1265;46078;-85
2023/10/25 13:21:29;;;;;;;3.10;2.80;;;;;;;15.52;93.84;98781.57;176272;1265;46001;-85
2023/10/25 13:25:32;;;;;;;4.30;3.00;;;;;;;15.60;91.97;98778.69;176776;1266;46022;-83
2023/10/25 13:29:38;;;;;;;20.50;12.80;;;;;;;15.66;94.90;98772.91;176478;1266;60301;-83
2023/10/25 13:33:41;;;;;;;7.50;4.90;;;;;;;15.72;95.07;98771.15;177155;1270;46103;-83
2023/10/25 13:37:44;;;;;;;3.30;2.90;;;;;;;15.75;94.71;98774.58;177826;1265;46188;-83
2023/10/25 13:41:47;;;;;;;2.70;2.50;;;;;;;15.80;93.75;98771.61;177155;1265;46136;-83
2023/10/25 13:50:27;;;;;;;;;;;;;;;15.69;91.69;98764.61;176856;1265;91286;-78
2023/10/25 13:54:30;;;;;;;3.50;2.50;;;;;;;15.61;93.63;98759.36;178627;1264;45808;-78
2023/10/25 13:58:33;;;;;;;2.70;2.50;;;;;;;15.57;95.17;98761.89;179361;1263;45979;-78
2023/10/25 14:02:36;;;;;;;4.00;3.60;;;;;;;15.54;96.24;98761.25;178863;1268;46061;-77
2023/10/25 14:06:41;;;;;;;2.90;1.90;;;;;;;15.40;95.06;98756.83;179009;1266;45917;-78
2023/10/25 14:10:47;;;;;;;104.60;48.80;;;;;;;15.34;94.34;98758.11;179197;1266;232180;-77
2023/10/25 14:14:50;;;;;;;12.00;5.10;;;;;;;15.24;95.31;98760.38;179872;1264;44801;-77
2023/10/25 14:18:54;;;;;;;9.80;2.00;;;;;;;15.04;99.87;98763.87;178393;1264;44866;-78
2023/10/25 14:22:57;;;;;;;2.40;2.20;;;;;;;14.96;100.00;98762.33;178500;1268;46250;-77
2023/10/25 14:27:01;;;;;;;2.90;2.50;;;;;;;14.92;100.00;98757.60;178231;1264;45930;-77
2023/10/25 14:31:04;;;;;;;5.60;3.40;;;;;;;14.87;100.00;98748.81;177579;1264;57896;-77
2023/10/25 14:35:08;;;;;;;7.50;3.20;;;;;;;14.85;99.11;98743.44;179083;1264;44434;-81
2023/10/25 14:39:12;;;;;;;6.60;3.90;;;;;;;14.84;97.98;98743.98;179406;1264;46123;-77
2023/10/25 14:43:15;;;;;;;8.60;5.30;;;;;;;14.79;96.92;98738.23;179686;1264;45299;-78
2023/10/25 14:47:18;;;;;;;5.40;3.00;;;;;;;14.77;97.66;98734.55;179199;1268;44809;-78
2023/10/25 14:51:25;;;;;;;7.40;4.50;;;;;;;14.68;96.98;98726.08;178985;1266;59720;-77
2023/10/25 14:55:31;;;;;;;4.30;3.40;;;;;;;14.63;97.56;98723.48;179139;1268;44207;-77
2023/10/25 14:59:36;;;;;;;;;;;;;;;14.57;97.79;98720.25;178439;1264;46118;-77
2023/10/25 15:03:39;;;;;;;14.10;2.70;;;;;;;14.54;99.90;98712.14;178209;1265;45832;-77
2023/10/25 15:07:46;;;;;;;2.80;2.50;;;;;;;14.54;100.00;98711.44;178941;1268;46533;-77
2023/10/25 15:11:50;;;;;;;2.80;2.60;;;;;;;14.56;100.00;98712.95;180361;1264;59272;-77
2023/10/25 15:15:58;;;;;;;6.60;3.60;;;;;;;14.64;100.00;98712.36;179547;1264;46120;-76
2023/10/25 15:20:01;;;;;;;6.10;4.00;;;;;;;14.69;100.00;98705.20;178842;1263;44862;-76
2023/10/25 15:24:05;;;;;;;3.20;2.70;;;;;;;14.66;100.00;98704.86;178909;1264;44729;-77
2023/10/25 15:28:08;;;;;;;7.80;3.30;;;;;;;14.62;100.00;98699.55;178754;1264;46008;-76
2023/10/25 15:32:11;;;;;;;3.30;3.00;;;;;;;14.63;100.00;98694.77;177422;1264;58670;-75
2023/10/25 15:36:14;;;;;;;7.30;4.10;;;;;;;14.62;100.00;98690.98;178198;1269;45866;-76
2023/10/25 15:40:18;;;;;;;4.30;3.50;;;;;;;14.61;100.00;98688.26;179125;1268;45993;-76
2023/10/25 15:44:29;;;;;;;5.20;3.50;;;;;;;14.57;100.00;98682.70;179242;1264;46111;-76
2023/10/25 15:48:32;;;;;;;5.90;4.70;;;;;;;14.51;100.00;98678.93;179690;1264;45921;-76
2023/10/25 15:52:36;;;;;;;27.70;17.70;;;;;;;14.42;100.00;98675.77;177829;1264;59304;-77
2023/10/25 15:56:40;;;;;;;16.10;10.70;;;;;;;14.35;100.00;98673.77;178889;1264;44048;-76
2023/10/25 16:00:43;;;;;;;10.40;7.80;;;;;;;14.27;100.00;98673.84;178234;1264;46124;-76
2023/10/25 16:04:46;;;;;;;11.90;8.50;;;;;;;14.17;100.00;98668.67;177560;1264;46442;-77
2023/10/25 16:08:49;;;;;;;12.70;10.00;;;;;;;14.06;100.00;98663.17;177206;1264;46015;-76
2023/10/25 16:12:52;;;;;;;14.70;9.50;;;;;;;13.90;100.00;98664.83;179603;1265;58609;-77
2023/10/25 16:16:55;;;;;;;15.20;11.70;;;;;;;13.54;100.00;98665.56;180265;1264;43847;-77
2023/10/25 16:21:03;;;;;;;19.40;15.80;;;;;;;13.25;100.00;98667.55;180659;1263;43778;-76
2023/10/25 16:25:06;;;;;;;23.40;20.80;;;;;;;13.08;100.00;98668.67;180639;1264;44206;-77
2023/10/25 16:29:10;;;;;;;48.40;36.00;;;;;;;13.04;100.00;98670.30;180625;1264;43974;-76
2023/10/25 16:33:14;;;;;;;78.90;57.50;;;;;;;13.07;100.00;98672.17;179314;1264;57559;-76
2023/10/25 16:37:17;;;;;;;62.10;45.90;;;;;;;13.06;100.00;98670.84;179426;1264;46121;-76
2023/10/25 16:41:27;;;;;;;54.20;39.00;;;;;;;13.05;100.00;98673.98;179477;1268;46114;-77
2023/10/25 16:45:32;;;;;;;60.40;41.90;;;;;;;13.02;100.00;98667.96;179301;1264;44139;-77
2023/10/25 16:49:35;;;;;;;43.70;29.20;;;;;;;12.87;100.00;98669.81;180159;1264;43874;-78
2023/10/25 16:53:45;;;;;;;40.30;26.90;;;;;;;12.60;100.00;98668.84;179196;1267;59555;-77
2023/10/25 16:57:49;;;;;;;28.30;20.50;;;;;;;12.41;100.00;98667.98;176261;1264;45966;-76
2023/10/25 17:01:52;;;;;;;30.40;23.50;;;;;;;12.26;100.00;98670.74;179161;1263;46022;-78
2023/10/25 17:05:56;;;;;;;30.30;22.90;;;;;;;12.12;100.00;98672.48;180507;1263;44050;-77
2023/10/25 17:09:59;;;;;;;28.90;18.70;;;;;;;12.10;100.00;98672.38;177773;1264;45975;-77
2023/10/25 17:14:02;;;;;;;23.10;20.10;;;;;;;12.13;100.00;98664.39;179423;1263;59577;-77
2023/10/25 17:18:05;;;;;;;21.60;17.70;;;;;;;12.16;100.00;98662.71;180149;1264;45700;-77
2023/10/25 17:22:08;;;;;;;41.70;27.70;;;;;;;12.14;100.00;98662.55;178654;1264;44435;-77
2023/10/25 17:26:12;;;;;;;35.70;28.20;;;;;;;11.99;100.00;98666.13;177744;1264;44084;-77
2023/10/25 17:30:16;;;;;;;33.80;21.90;;;;;;;11.91;100.00;98657.48;177646;1264;45956;-76
2023/10/25 17:34:19;;;;;;;25.90;20.20;;;;;;;11.86;100.00;98654.77;178509;1264;57965;-77
2023/10/25 17:38:23;;;;;;;27.10;19.80;;;;;;;11.83;100.00;98648.34;176990;1264;46124;-78
2023/10/25 17:42:26;;;;;;;50.40;37.10;;;;;;;11.76;100.00;98644.38;178181;1264;46032;-78
2023/10/25 17:46:29;;;;;;;51.70;37.30;;;;;;;11.61;100.00;98641.77;178300;1264;46041;-78
2023/10/25 17:50:34;;;;;;;335.70;223.40;;;;;;;11.50;100.00;98634.66;178959;1264;46124;-76
2023/10/25 17:54:40;;;;;;;44.00;28.20;;;;;;;11.43;100.00;98627.50;178198;1264;59844;-76
2023/10/25 17:58:44;;;;;;;30.60;20.20;;;;;;;11.24;100.00;98625.27;179710;1264;44037;-76
2023/10/25 18:02:47;;;;;;;22.50;16.50;;;;;;;11.05;100.00;98627.38;179075;1264;44037;-75
2023/10/25 18:06:50;;;;;;;123.50;76.90;;;;;;;10.91;100.00;98631.57;178234;1266;45242;-76
2023/10/25 18:11:17;;;;;;;100.20;61.00;;;;;;;10.82;100.00;98631.11;178701;1264;44171;-75
2023/10/25 18:15:20;;;;;;;93.40;56.00;;;;;;;10.70;100.00;98625.37;179762;1264;59969;-76
2023/10/25 18:19:24;;;;;;;107.10;62.50;;;;;;;10.68;100.00;98625.20;179568;1264;43962;-76
2023/10/25 18:23:27;;;;;;;77.90;52.90;;;;;;;10.64;100.00;98619.59;180188;1264;43942;-75
2023/10/25 18:27:31;;;;;;;60.40;36.70;;;;;;;10.52;100.00;98614.35;180003;1264;45342;-77
2023/10/25 18:31:35;;;;;;;57.40;39.70;;;;;;;10.44;100.00;98605.64;180311;1264;46008;-76
2023/10/25 18:35:58;;;;;;;64.20;42.00;;;;;;;10.41;100.00;98603.40;179934;1267;60101;-76
2023/10/25 18:40:06;;;;;;;46.40;32.50;;;;;;;10.35;100.00;98606.74;179670;1264;44414;-76
2023/10/25 18:44:09;;;;;;;93.80;42.00;;;;;;;10.35;100.00;98608.83;179253;1264;45898;-76
2023/10/25 18:48:12;;;;;;;75.90;45.00;;;;;;;10.42;100.00;98603.36;178821;1264;45991;-76
2023/10/25 18:52:15;;;;;;;52.60;36.40;;;;;;;10.50;100.00;98601.81;179955;1264;44486;-76
2023/10/25 18:56:19;;;;;;;46.40;31.70;;;;;;;10.49;100.00;98599.73;178424;1264;58307;-76
2023/10/25 19:00:22;;;;;;;41.10;24.40;;;;;;;10.58;100.00;98605.13;179025;1264;44225;-76
2023/10/25 19:04:26;;;;;;;38.30;22.90;;;;;;;10.60;100.00;98602.15;179763;1264;44304;-75
2023/10/25 19:08:36;;;;;;;39.40;23.90;;;;;;;10.66;100.00;98600.21;178443;1264;46119;-76
2023/10/25 19:12:41;;;;;;;64.00;41.70;;;;;;;10.69;100.00;98592.66;178910;1264;45250;-78
2023/10/25 19:16:47;;;;;;;94.80;61.60;;;;;;;10.77;100.00;98586.86;179399;1264;58865;-77
2023/10/25 19:20:50;;;;;;;44.40;29.10;;;;;;;10.77;100.00;98592.83;178171;1264;46064;-77
2023/10/25 19:24:53;;;;;;;33.90;21.50;;;;;;;10.72;100.00;98584.13;177921;1268;46020;-78